»·PEaware :: WAT234 KAPV-KBFL

WAT234 :: KAPV-KBFL

FLIGHT INFORMATION

Flight Status: Arrived
Operator:
Walker Air Transport
More flights by this operator :: More flights under this callsign
Pilot: Eduardo Elias G. (24838)
Aircraft: PIPER PA-28R-201 ARROW
(P28R)
More flights by this aircraft type
Origin: KAPV Apple Valley
United States
Destination: KBFL Meadows
United States
More flights between these airports :: More routes between these airports
Route: +HELDE V12 PMD FASTO2
File this flight plan on PilotEdge
Remarks:
Altitude:
(Current/Filed)
12,000ft
Speed:
(Current/Filed)
150kts
Departed: 18-Sep-20 09:12 PM
Arrived: 18-Sep-20 10:09 PM
Distance/Time
Traveled:
105nm/0:57
Distance/Time
To Go:
Arrived

Flight Plot

Page will automatically refresh every two minutes.

Flight plan parsing failed; only flown route is shown


Map Options




Map Legend


Flown Route
Filed Route
Departure Airport
Arrival Airport
Navaid (VOR, NDB)
Fix

Horizontal Profiles

Position Reports

Time Latitude Longitude Heading Altitude Ground
Speed
18-Sep-20 20:40 34.574337 -117.189131 89 3065ft 0kts
18-Sep-20 20:41 34.574337 -117.189131 89 3065ft 0kts
18-Sep-20 20:42 34.574337 -117.189131 89 3065ft 0kts
18-Sep-20 20:43 34.574337 -117.189131 89 3065ft 0kts
18-Sep-20 20:44 34.574337 -117.189131 89 3065ft 0kts
18-Sep-20 20:45 34.574337 -117.189131 89 3065ft 0kts
18-Sep-20 20:46 34.574337 -117.189131 89 3065ft 0kts
18-Sep-20 20:47 34.574337 -117.189131 89 3065ft 0kts
18-Sep-20 20:48 34.574337 -117.189131 89 3065ft 0kts
18-Sep-20 20:49 34.574337 -117.189131 89 3065ft 0kts
18-Sep-20 20:50 34.574337 -117.189131 89 3065ft 0kts
18-Sep-20 20:51 34.574337 -117.189131 89 3065ft 0kts
18-Sep-20 20:51 34.574337 -117.189131 89 3065ft 0kts
18-Sep-20 20:53 34.574337 -117.189131 89 3065ft 0kts
18-Sep-20 20:54 34.574337 -117.189131 89 3065ft 0kts
18-Sep-20 20:54 34.574337 -117.189131 89 3065ft 0kts
18-Sep-20 20:55 34.574337 -117.189131 89 3065ft 0kts
18-Sep-20 20:56 34.574337 -117.189131 89 3065ft 0kts
18-Sep-20 20:58 34.574337 -117.189131 89 3065ft 0kts
18-Sep-20 20:58 34.574337 -117.189131 89 3065ft 0kts
18-Sep-20 20:59 34.574337 -117.189126 89 3065ft 0kts
18-Sep-20 21:00 34.575084 -117.188288 15 3065ft 8kts
18-Sep-20 21:01 34.578070 -117.187250 15 3065ft 12kts
18-Sep-20 21:02 34.581628 -117.186001 15 3065ft 13kts
18-Sep-20 21:03 34.585341 -117.184707 16 3065ft 13kts
18-Sep-20 21:04 34.587677 -117.183530 92 3065ft 0kts
18-Sep-20 21:05 34.587677 -117.183530 92 3065ft 0kts
18-Sep-20 21:06 34.587677 -117.183530 92 3065ft 0kts
18-Sep-20 21:07 34.587677 -117.183530 92 3065ft 0kts
18-Sep-20 21:08 34.587677 -117.183530 92 3065ft 0kts
18-Sep-20 21:09 34.587677 -117.183530 92 3065ft 0kts
18-Sep-20 21:10 34.587140 -117.182694 195 3065ft 0kts
18-Sep-20 21:11 34.568127 -117.189371 197 3382ft 103kts
18-Sep-20 21:12 34.558447 -117.215480 305 4225ft 108kts
18-Sep-20 21:13 34.575065 -117.232378 317 4992ft 94kts
18-Sep-20 21:14 34.595089 -117.254096 307 5909ft 90kts
18-Sep-20 21:15 34.614232 -117.278372 306 6592ft 102kts
18-Sep-20 21:16 34.637320 -117.300137 321 7203ft 111kts
18-Sep-20 21:17 34.657319 -117.325327 301 7922ft 107kts
18-Sep-20 21:18 34.678262 -117.350686 307 8564ft 112kts
18-Sep-20 21:19 34.700574 -117.375307 312 9197ft 116kts
18-Sep-20 21:20 34.705304 -117.408225 267 9814ft 102kts
18-Sep-20 21:21 34.700815 -117.441163 250 10391ft 99kts
18-Sep-20 21:22 34.697662 -117.474084 254 10857ft 108kts
18-Sep-20 21:23 34.692427 -117.506459 241 11559ft 92kts
18-Sep-20 21:24 34.689198 -117.540630 248 11876ft 106kts
18-Sep-20 21:25 34.683379 -117.575957 257 12306ft 102kts
18-Sep-20 21:26 34.679064 -117.614934 253 12159ft 129kts
18-Sep-20 21:27 34.674518 -117.656002 256 12151ft 132kts
18-Sep-20 21:28 34.671493 -117.699769 256 11964ft 133kts
18-Sep-20 21:29 34.667462 -117.742547 253 12052ft 118kts
18-Sep-20 21:30 34.663208 -117.782822 253 12267ft 107kts
18-Sep-20 21:31 34.658655 -117.823764 254 11975ft 129kts
18-Sep-20 21:32 34.654158 -117.865667 254 11910ft 122kts
18-Sep-20 21:33 34.649735 -117.906389 253 11944ft 118kts
18-Sep-20 21:34 34.645468 -117.945819 253 12008ft 119kts
18-Sep-20 21:35 34.641202 -117.984802 253 12087ft 118kts
18-Sep-20 21:36 34.636938 -118.023819 254 12125ft 119kts
18-Sep-20 21:37 34.636167 -118.063263 293 12116ft 132kts
18-Sep-20 21:38 34.660283 -118.098174 301 12080ft 138kts
18-Sep-20 21:39 34.685995 -118.132187 302 12065ft 138kts
18-Sep-20 21:40 34.711907 -118.166010 302 12045ft 135kts
18-Sep-20 21:41 34.737770 -118.199632 302 12029ft 134kts
18-Sep-20 21:42 34.763459 -118.233056 302 12034ft 131kts
18-Sep-20 21:43 34.788809 -118.266168 301 12021ft 133kts
18-Sep-20 21:44 34.814182 -118.299292 302 12026ft 133kts
18-Sep-20 21:45 34.839472 -118.332277 302 11996ft 135kts
18-Sep-20 21:46 34.864175 -118.364534 302 12124ft 129kts
18-Sep-20 21:47 34.888868 -118.396845 301 12201ft 134kts
18-Sep-20 21:48 34.914443 -118.430350 303 12155ft 137kts
18-Sep-20 21:49 34.941162 -118.465387 302 11911ft 138kts
18-Sep-20 21:50 34.967487 -118.499909 303 11853ft 130kts
18-Sep-20 21:51 34.993282 -118.533606 302 11856ft 124kts
18-Sep-20 21:52 35.017992 -118.566349 302 11815ft 130kts
18-Sep-20 21:53 35.044097 -118.596197 305 12075ft 127kts
18-Sep-20 21:54 35.070811 -118.626303 306 12133ft 131kts
18-Sep-20 21:55 35.099539 -118.659659 307 11388ft 154kts
18-Sep-20 21:56 35.130751 -118.695149 311 10076ft 163kts
18-Sep-20 21:57 35.163050 -118.731484 312 9028ft 163kts
18-Sep-20 21:58 35.194968 -118.767571 312 8182ft 154kts
18-Sep-20 21:59 35.226264 -118.804861 312 7132ft 154kts
18-Sep-20 22:00 35.257636 -118.842474 312 5938ft 157kts
18-Sep-20 22:01 35.288606 -118.879809 313 4630ft 165kts
18-Sep-20 22:02 35.318982 -118.916598 313 3762ft 148kts
18-Sep-20 22:03 35.344860 -118.953889 305 3169ft 140kts
18-Sep-20 22:04 35.373402 -118.985711 327 2701ft 131kts
18-Sep-20 22:05 35.398286 -119.014407 323 1295ft 94kts
18-Sep-20 22:06 35.414650 -119.033789 315 947ft 81kts
18-Sep-20 22:07 35.429970 -119.051667 314 539ft 70kts
18-Sep-20 22:08 35.439136 -119.062557 314 498ft 28kts
18-Sep-20 22:09 35.440784 -119.062764 40 498ft 1kts
18-Sep-20 22:10 35.438061 -119.059009 132 498ft 21kts
18-Sep-20 22:11 35.433993 -119.054117 135 498ft 18kts
18-Sep-20 22:12 35.430548 -119.049944 136 498ft 17kts
18-Sep-20 22:13 35.429877 -119.047146 44 498ft 9kts
18-Sep-20 22:14 35.430308 -119.046343 221 498ft 0kts
18-Sep-20 22:15 35.430308 -119.046343 221 498ft 0kts
18-Sep-20 22:16 35.430308 -119.046343 221 498ft 0kts
18-Sep-20 22:17 35.430308 -119.046343 221 498ft 0kts

Navigation Log

Ident Type
Flight plan parsing failed, navigation log unavailable